createdAt,value
2022-12-20T00:01:36.138Z,20.30
2022-12-20T00:04:06.022Z,19.88
2022-12-20T00:06:35.881Z,22.60
2022-12-20T00:09:05.450Z,21.80
2022-12-20T00:11:32.976Z,21.58
2022-12-20T00:14:00.312Z,24.20
2022-12-20T00:16:29.458Z,22.23
2022-12-20T00:19:02.537Z,21.85
2022-12-20T00:21:32.273Z,20.17
2022-12-20T00:24:00.183Z,20.05
2022-12-20T00:26:31.121Z,19.23
2022-12-20T00:28:58.552Z,19.45
2022-12-20T00:31:28.323Z,17.05
2022-12-20T00:33:59.623Z,18.83
2022-12-20T00:36:29.149Z,19.08
2022-12-20T00:38:57.426Z,17.35
2022-12-20T00:41:27.321Z,18.45
2022-12-20T00:43:54.689Z,18.10
2022-12-20T00:46:23.685Z,17.42
2022-12-20T00:48:51.869Z,19.63
2022-12-20T00:51:23.214Z,18.40
2022-12-20T00:53:50.348Z,17.95
2022-12-20T00:56:18.761Z,18.55
2022-12-20T00:58:46.105Z,18.02
2022-12-20T01:01:23.617Z,19.13
2022-12-20T01:03:52.043Z,18.50
2022-12-20T01:06:20.222Z,17.83
2022-12-20T01:08:47.379Z,18.92
2022-12-20T01:11:22.216Z,18.38
2022-12-20T01:13:52.738Z,18.63
2022-12-20T01:16:27.267Z,17.80
2022-12-20T01:18:54.871Z,19.77
2022-12-20T01:21:23.844Z,19.85
2022-12-20T01:23:51.336Z,18.58
2022-12-20T01:26:22.416Z,18.63
2022-12-20T01:28:53.602Z,18.80
2022-12-20T01:31:20.988Z,20.92
2022-12-20T01:33:49.348Z,20.98
2022-12-20T01:36:18.907Z,22.40
2022-12-20T01:38:47.184Z,20.17
2022-12-20T01:41:23.408Z,22.00
2022-12-20T01:43:52.261Z,19.20
2022-12-20T01:46:21.613Z,20.70
2022-12-20T01:49:01.873Z,20.98
2022-12-20T01:51:32.246Z,19.65
2022-12-20T01:54:07.838Z,20.27
2022-12-20T01:56:36.435Z,19.05
2022-12-20T01:59:04.009Z,18.83
2022-12-20T02:01:31.278Z,19.88
2022-12-20T02:04:00.203Z,20.52
2022-12-20T02:06:28.147Z,19.23
2022-12-20T02:08:59.548Z,21.00
2022-12-20T02:11:59.334Z,22.33
2022-12-20T02:14:29.513Z,21.08
2022-12-20T02:17:32.729Z,20.13
2022-12-20T02:20:31.959Z,21.13
2022-12-20T02:23:20.062Z,20.58
2022-12-20T02:26:30.378Z,20.58
2022-12-20T02:29:07.863Z,20.27
2022-12-20T02:31:50.548Z,22.65
2022-12-20T02:34:18.876Z,21.48
2022-12-20T02:36:46.006Z,22.67
2022-12-20T02:39:17.361Z,21.40
2022-12-20T02:41:51.056Z,22.40
2022-12-20T02:44:39.570Z,21.35
2022-12-20T02:47:14.217Z,21.75
2022-12-20T02:49:46.900Z,23.98
2022-12-20T02:52:15.108Z,20.98
2022-12-20T02:54:42.293Z,24.73
2022-12-20T02:57:20.596Z,22.70
2022-12-20T03:00:08.925Z,23.25
2022-12-20T03:02:55.524Z,23.13
2022-12-20T03:05:25.866Z,23.70
2022-12-20T03:07:53.574Z,21.60
2022-12-20T03:10:22.269Z,22.40
2022-12-20T03:12:49.378Z,20.77
2022-12-20T03:15:17.223Z,20.83
2022-12-20T03:17:44.485Z,22.00
2022-12-20T03:20:11.796Z,20.60
2022-12-20T03:22:39.470Z,23.08
2022-12-20T03:25:07.415Z,22.95
2022-12-20T03:27:34.856Z,22.90
2022-12-20T03:30:02.123Z,22.90
2022-12-20T03:32:29.485Z,21.27
2022-12-20T03:34:56.993Z,20.60
2022-12-20T03:37:24.251Z,23.38
2022-12-20T03:39:51.450Z,21.20
2022-12-20T03:42:18.825Z,21.30
2022-12-20T03:44:46.038Z,22.65
2022-12-20T03:47:13.637Z,23.25
2022-12-20T03:49:41.101Z,23.20
2022-12-20T03:52:08.854Z,21.90
2022-12-20T03:54:36.091Z,24.15
2022-12-20T03:57:03.378Z,23.98
2022-12-20T03:59:30.747Z,23.35
2022-12-20T04:01:58.003Z,25.42
2022-12-20T04:04:25.338Z,24.27
2022-12-20T04:06:52.684Z,25.80
2022-12-20T04:09:20.029Z,26.48
2022-12-20T04:11:47.190Z,24.90
2022-12-20T04:14:14.275Z,26.50
2022-12-20T04:16:41.615Z,25.85
2022-12-20T04:19:08.786Z,24.80
2022-12-20T04:21:36.760Z,24.20
2022-12-20T04:24:04.886Z,24.35
2022-12-20T04:26:32.362Z,23.88
2022-12-20T04:28:59.483Z,22.77
2022-12-20T04:31:27.006Z,24.38
2022-12-20T04:33:54.261Z,24.77
2022-12-20T04:36:21.636Z,22.95
2022-12-20T04:38:48.849Z,23.77
2022-12-20T04:41:23.197Z,23.50
2022-12-20T04:43:52.107Z,24.52
2022-12-20T04:46:19.905Z,25.63
2022-12-20T04:48:57.158Z,26.63
2022-12-20T04:51:26.042Z,24.23
2022-12-20T04:53:53.228Z,25.33
2022-12-20T04:56:23.902Z,25.50
2022-12-20T04:58:53.288Z,24.85
2022-12-20T05:01:21.256Z,26.05
2022-12-20T05:03:49.729Z,23.90
2022-12-20T05:06:17.743Z,25.80
2022-12-20T05:08:45.402Z,24.15
2022-12-20T05:11:13.184Z,23.92
2022-12-20T05:13:40.807Z,24.23
2022-12-20T05:16:08.429Z,24.77
2022-12-20T05:18:36.112Z,24.38
2022-12-20T05:21:22.481Z,22.67
2022-12-20T05:24:08.577Z,24.15
2022-12-20T05:26:38.197Z,24.48
2022-12-20T05:29:06.197Z,25.40
2022-12-20T05:31:33.913Z,24.00
2022-12-20T05:34:01.569Z,24.92
2022-12-20T05:36:28.768Z,26.38
2022-12-20T05:39:03.383Z,24.52
2022-12-20T05:41:31.308Z,23.58
2022-12-20T05:43:58.706Z,24.02
2022-12-20T05:46:26.017Z,24.45
2022-12-20T05:48:53.332Z,24.10
2022-12-20T05:51:20.440Z,24.30
2022-12-20T05:53:47.604Z,24.33
2022-12-20T05:56:14.876Z,24.85
2022-12-20T05:58:42.259Z,23.98
2022-12-20T06:01:10.798Z,27.05
2022-12-20T06:03:39.605Z,25.17
2022-12-20T06:06:13.900Z,26.50
2022-12-20T06:08:42.096Z,25.00
2022-12-20T06:11:09.290Z,24.50
2022-12-20T06:13:36.643Z,23.23
2022-12-20T06:16:04.296Z,25.80
2022-12-20T06:18:31.393Z,24.30
2022-12-20T06:20:58.471Z,24.27
2022-12-20T06:23:26.227Z,23.92
2022-12-20T06:25:53.868Z,24.05
2022-12-20T06:28:22.441Z,23.38
2022-12-20T06:30:57.223Z,23.15
2022-12-20T06:33:25.420Z,24.27
2022-12-20T06:35:53.371Z,23.88
2022-12-20T06:38:20.680Z,23.27
2022-12-20T06:40:47.933Z,27.02
2022-12-20T06:43:15.209Z,24.50
2022-12-20T06:45:42.869Z,23.42
2022-12-20T06:48:10.663Z,23.67
2022-12-20T06:50:41.222Z,24.30
2022-12-20T06:53:08.523Z,25.00
2022-12-20T06:55:35.735Z,22.15
2022-12-20T06:58:04.442Z,25.25
2022-12-20T07:00:32.126Z,23.83
2022-12-20T07:02:59.982Z,26.52
2022-12-20T07:05:27.801Z,24.15
2022-12-20T07:07:55.084Z,25.75
2022-12-20T07:10:22.450Z,24.67
2022-12-20T07:12:55.724Z,25.92
2022-12-20T07:15:23.216Z,24.48
2022-12-20T07:17:50.345Z,25.33
2022-12-20T07:20:18.078Z,25.80
2022-12-20T07:22:48.249Z,24.52
2022-12-20T07:25:15.432Z,22.55
2022-12-20T07:27:42.566Z,23.13
2022-12-20T07:30:11.155Z,23.40
2022-12-20T07:32:38.385Z,22.23
2022-12-20T07:35:06.104Z,23.05
2022-12-20T07:37:33.282Z,25.15
2022-12-20T07:40:00.594Z,21.83
2022-12-20T07:42:35.567Z,24.65
2022-12-20T07:45:05.651Z,22.30
2022-12-20T07:47:36.217Z,22.20
2022-12-20T07:50:04.170Z,21.50
2022-12-20T07:52:34.738Z,21.70
2022-12-20T07:55:06.997Z,22.80
2022-12-20T07:57:51.633Z,24.33
2022-12-20T08:00:19.113Z,23.27
2022-12-20T08:02:53.338Z,22.88
2022-12-20T08:05:21.958Z,22.97
2022-12-20T08:07:53.482Z,21.60
2022-12-20T08:10:24.219Z,24.15
2022-12-20T08:12:52.077Z,22.27
2022-12-20T08:15:21.771Z,25.25
2022-12-20T08:17:49.673Z,23.52
2022-12-20T08:20:18.214Z,20.50
2022-12-20T08:22:45.757Z,21.90
2022-12-20T08:25:15.599Z,24.10
2022-12-20T08:27:42.754Z,23.33
2022-12-20T08:30:11.054Z,22.70
2022-12-20T08:32:38.783Z,22.13
2022-12-20T08:35:06.986Z,22.92
2022-12-20T08:37:34.462Z,21.92
2022-12-20T08:40:01.774Z,25.08
2022-12-20T08:42:30.156Z,24.45
2022-12-20T08:44:57.366Z,24.38
2022-12-20T08:47:24.608Z,25.10
2022-12-20T08:49:51.729Z,21.33
2022-12-20T08:52:18.842Z,22.38
2022-12-20T08:54:46.468Z,23.27
2022-12-20T08:57:13.910Z,21.48
2022-12-20T08:59:43.739Z,22.60
2022-12-20T09:02:11.078Z,23.67
2022-12-20T09:04:39.109Z,24.70
2022-12-20T09:07:06.209Z,23.50
2022-12-20T09:09:33.214Z,25.05
2022-12-20T09:12:00.297Z,24.02
2022-12-20T09:14:28.178Z,24.27
2022-12-20T09:16:55.330Z,23.95
2022-12-20T09:19:22.443Z,24.38
2022-12-20T09:21:49.563Z,24.00
2022-12-20T09:24:17.639Z,23.08
2022-12-20T09:26:45.705Z,22.88
2022-12-20T09:29:22.993Z,22.45
2022-12-20T09:31:53.343Z,25.25
2022-12-20T09:34:20.532Z,24.65
2022-12-20T09:36:47.968Z,23.33
2022-12-20T09:39:14.906Z,22.90
2022-12-20T09:41:44.283Z,22.98
2022-12-20T09:44:25.086Z,22.55
2022-12-20T09:47:10.509Z,24.63
2022-12-20T09:49:42.329Z,23.90
2022-12-20T09:52:39.235Z,24.83
2022-12-20T09:55:46.093Z,25.08
2022-12-20T09:58:45.983Z,24.65
2022-12-20T10:01:24.902Z,22.67
2022-12-20T10:03:54.628Z,22.58
2022-12-20T10:06:29.248Z,23.30
2022-12-20T10:09:05.935Z,23.27
2022-12-20T10:11:58.135Z,23.80
2022-12-20T10:14:38.439Z,21.98
2022-12-20T10:17:19.523Z,25.95
2022-12-20T10:19:55.309Z,20.85
2022-12-20T10:22:44.284Z,21.77
2022-12-20T10:25:23.251Z,20.45
2022-12-20T10:27:53.869Z,20.95
2022-12-20T10:30:24.872Z,21.90
2022-12-20T10:32:55.178Z,21.23
2022-12-20T10:35:25.759Z,21.70
2022-12-20T10:38:09.331Z,22.08
2022-12-20T10:41:10.113Z,21.33
2022-12-20T10:43:28.786Z,21.55
2022-12-20T10:46:00.941Z,20.00
2022-12-20T10:48:34.452Z,22.55
2022-12-20T10:51:16.784Z,20.33
2022-12-20T10:53:59.685Z,20.65
2022-12-20T10:56:39.307Z,257.42
2022-12-20T10:59:18.547Z,554.42
2022-12-20T11:01:48.262Z,830.33
2022-12-20T11:04:31.844Z,355.30
2022-12-20T11:07:22.487Z,75.65
2022-12-20T11:09:55.620Z,55.38
2022-12-20T11:12:23.257Z,51.03
2022-12-20T11:14:50.777Z,47.97
2022-12-20T11:17:49.688Z,44.03
2022-12-20T11:20:41.575Z,69.95
2022-12-20T11:23:20.633Z,75.60
2022-12-20T11:26:05.778Z,389.98
2022-12-20T11:28:57.296Z,66.25
2022-12-20T11:31:36.239Z,42.00
2022-12-20T11:34:18.007Z,39.22
2022-12-20T11:37:03.222Z,33.15
2022-12-20T11:39:43.708Z,83.35
2022-12-20T11:42:59.011Z,203.18
2022-12-20T11:45:57.626Z,655.13
2022-12-20T11:48:46.416Z,515.05
2022-12-20T11:51:26.969Z,220.32
2022-12-20T11:54:08.724Z,259.13
2022-12-20T11:56:43.282Z,315.67
2022-12-20T11:59:30.295Z,355.30
2022-12-20T12:02:12.789Z,233.50
2022-12-20T12:04:56.276Z,140.15
2022-12-20T12:07:29.099Z,228.38
2022-12-20T12:10:13.365Z,182.18
2022-12-20T12:12:45.550Z,141.75
2022-12-20T12:15:22.857Z,336.42
2022-12-20T12:18:05.509Z,284.63
2022-12-20T12:20:46.987Z,183.23
2022-12-20T12:23:23.845Z,138.55
2022-12-20T12:25:50.979Z,76.65
2022-12-20T12:28:20.219Z,136.55
2022-12-20T12:31:04.796Z,222.52
2022-12-20T12:33:40.852Z,95.88
2022-12-20T12:36:35.809Z,82.75
2022-12-20T12:39:38.169Z,34.97
2022-12-20T12:42:18.914Z,38.88
2022-12-20T12:45:04.075Z,27.83
2022-12-20T12:47:42.370Z,21.05
2022-12-20T12:50:25.984Z,15.63
2022-12-20T12:53:00.906Z,16.42
2022-12-20T12:55:41.646Z,17.05
2022-12-20T12:58:48.392Z,17.50
2022-12-20T13:01:54.014Z,16.90
2022-12-20T13:04:21.458Z,14.57
2022-12-20T13:06:49.024Z,15.57
2022-12-20T13:09:31.083Z,14.35
2022-12-20T13:12:18.943Z,14.60
2022-12-20T13:14:46.217Z,13.68
2022-12-20T13:17:25.887Z,13.45
2022-12-20T13:19:55.765Z,15.73
2022-12-20T13:22:26.746Z,13.45
2022-12-20T13:24:57.780Z,13.68
2022-12-20T13:27:39.352Z,13.45
2022-12-20T13:30:13.509Z,13.35
2022-12-20T13:33:03.092Z,13.15
2022-12-20T13:35:51.745Z,13.48
2022-12-20T13:38:39.137Z,13.10
2022-12-20T13:41:20.619Z,13.82
2022-12-20T13:43:49.775Z,13.02
2022-12-20T13:46:41.162Z,11.82
2022-12-20T13:49:12.408Z,12.32
2022-12-20T13:51:39.922Z,11.27
2022-12-20T13:54:25.204Z,12.13
2022-12-20T13:56:55.304Z,11.98
2022-12-20T13:59:29.515Z,11.57
2022-12-20T14:01:59.665Z,12.63
2022-12-20T14:04:41.977Z,10.60
2022-12-20T14:07:12.559Z,10.82
2022-12-20T14:09:39.882Z,11.43
2022-12-20T14:12:16.670Z,11.27
2022-12-20T14:14:48.446Z,10.10
2022-12-20T14:17:34.184Z,10.48
2022-12-20T14:20:12.652Z,11.20
2022-12-20T14:22:51.532Z,10.88
2022-12-20T14:25:48.961Z,11.48
2022-12-20T14:28:34.065Z,10.25
2022-12-20T14:31:02.494Z,9.55
2022-12-20T14:33:37.655Z,11.10
2022-12-20T14:36:16.812Z,9.05
2022-12-20T14:38:54.425Z,8.45
2022-12-20T14:41:38.502Z,9.23
2022-12-20T14:44:08.383Z,9.40
2022-12-20T14:46:43.593Z,8.60
2022-12-20T14:49:23.061Z,9.43
2022-12-20T14:51:51.444Z,9.27
2022-12-20T14:57:39.042Z,13.52
2022-12-20T15:00:28.194Z,13.35
2022-12-20T15:03:03.339Z,14.02
2022-12-20T15:05:37.897Z,16.27
2022-12-20T15:08:11.095Z,15.73
2022-12-20T15:10:38.738Z,12.20
2022-12-20T15:13:14.692Z,9.30
2022-12-20T15:15:42.362Z,9.38
2022-12-20T15:18:12.803Z,9.75
2022-12-20T15:20:41.978Z,8.38
2022-12-20T15:23:20.788Z,8.43
2022-12-20T15:25:48.775Z,9.55
2022-12-20T15:28:25.477Z,8.32
2022-12-20T15:30:53.809Z,9.30
2022-12-20T15:33:27.233Z,9.73
2022-12-20T15:35:54.670Z,8.30
2022-12-20T15:38:40.632Z,8.68
2022-12-20T15:41:27.448Z,9.32
2022-12-20T15:43:57.702Z,9.52
2022-12-20T15:46:25.240Z,9.57
2022-12-20T15:48:56.297Z,9.13
2022-12-20T15:51:33.727Z,9.13
2022-12-20T15:54:03.175Z,8.20
2022-12-20T15:56:30.985Z,9.10
2022-12-20T15:58:58.130Z,8.82
2022-12-20T16:01:33.258Z,10.45
2022-12-20T16:04:17.200Z,9.30
2022-12-20T16:06:45.405Z,8.68
2022-12-20T16:09:12.789Z,9.13
2022-12-20T16:11:40.812Z,9.00
2022-12-20T16:14:13.960Z,8.35
2022-12-20T16:16:41.133Z,10.55
2022-12-20T16:19:08.665Z,8.18
2022-12-20T16:21:41.931Z,10.02
2022-12-20T16:24:12.970Z,9.10
2022-12-20T16:26:40.180Z,10.07
2022-12-20T16:29:08.371Z,11.40
2022-12-20T16:31:38.203Z,10.25
2022-12-20T16:34:10.565Z,9.23
2022-12-20T16:36:38.482Z,9.90
2022-12-20T16:39:05.738Z,8.93
2022-12-20T16:41:34.232Z,9.32
2022-12-20T16:44:03.614Z,9.68
2022-12-20T16:46:32.590Z,8.98
2022-12-20T16:49:01.008Z,8.40
2022-12-20T16:51:48.538Z,8.85
2022-12-20T16:54:21.776Z,7.28
2022-12-20T16:56:56.225Z,8.63
2022-12-20T16:59:26.480Z,9.73
2022-12-20T17:01:56.063Z,10.68
2022-12-20T17:04:24.680Z,9.35
2022-12-20T17:06:51.825Z,9.00
2022-12-20T17:09:20.406Z,12.23
2022-12-20T17:11:50.421Z,12.80
2022-12-20T17:14:20.062Z,10.23
2022-12-20T17:16:47.580Z,10.35
2022-12-20T17:19:14.933Z,9.52
2022-12-20T17:24:30.812Z,10.18
2022-12-20T17:26:58.052Z,9.45
2022-12-20T17:29:25.349Z,9.38
2022-12-20T17:31:52.775Z,9.45
2022-12-20T17:34:23.168Z,10.57
2022-12-20T17:36:52.428Z,7.82
2022-12-20T17:39:19.639Z,8.88
2022-12-20T17:41:47.630Z,9.15
2022-12-20T17:44:20.809Z,9.45
2022-12-20T17:46:50.877Z,10.05
2022-12-20T17:49:18.310Z,8.48
2022-12-20T17:51:46.248Z,8.93
2022-12-20T17:54:25.394Z,9.40
2022-12-20T17:56:53.905Z,9.35
2022-12-20T17:59:22.585Z,9.73
2022-12-20T18:01:50.037Z,8.73
2022-12-20T18:04:17.583Z,8.75
2022-12-20T18:06:46.594Z,8.57
2022-12-20T18:09:19.799Z,8.93
2022-12-20T18:11:49.690Z,8.70
2022-12-20T18:14:17.465Z,7.22
2022-12-20T18:16:44.827Z,8.30
2022-12-20T18:19:19.400Z,7.70
2022-12-20T18:21:48.052Z,9.20
2022-12-20T18:24:16.387Z,10.88
2022-12-20T18:26:45.134Z,9.50
2022-12-20T18:29:12.456Z,8.77
2022-12-20T18:31:40.248Z,7.78
2022-12-20T18:34:07.715Z,8.50
2022-12-20T18:36:37.623Z,7.80
2022-12-20T18:39:06.812Z,6.78
2022-12-20T18:41:35.035Z,8.52
2022-12-20T18:44:04.807Z,7.55
2022-12-20T18:46:33.374Z,7.15
2022-12-20T18:49:01.780Z,7.25
2022-12-20T18:51:38.371Z,8.48
2022-12-20T18:54:08.247Z,7.07
2022-12-20T18:56:37.877Z,7.20
2022-12-20T18:59:14.152Z,8.75
2022-12-20T19:01:43.183Z,7.28
2022-12-20T19:04:11.303Z,7.22
2022-12-20T19:06:38.881Z,8.20
2022-12-20T19:09:12.223Z,13.18
2022-12-20T19:11:40.450Z,9.77
2022-12-20T19:14:08.537Z,8.70
2022-12-20T19:16:36.359Z,9.30
2022-12-20T19:19:04.506Z,8.63
2022-12-20T19:21:35.871Z,10.18
2022-12-20T19:24:07.598Z,11.93
2022-12-20T19:26:36.838Z,8.75
2022-12-20T19:29:05.495Z,8.90
2022-12-20T19:31:34.594Z,9.88
2022-12-20T19:34:04.523Z,20.88
2022-12-20T19:36:38.118Z,27.23
2022-12-20T19:39:07.935Z,22.35
2022-12-20T19:41:35.983Z,50.88
2022-12-20T19:44:04.577Z,20.92
2022-12-20T19:46:32.089Z,16.33
2022-12-20T19:49:00.489Z,15.50
2022-12-20T19:51:29.382Z,15.85
2022-12-20T19:53:58.407Z,15.65
2022-12-20T19:56:31.830Z,16.40
2022-12-20T19:58:59.042Z,10.43
2022-12-20T20:01:27.935Z,10.88
2022-12-20T20:03:58.114Z,11.35
2022-12-20T20:06:27.235Z,9.43
2022-12-20T20:08:57.793Z,11.00
2022-12-20T20:11:25.730Z,10.98
2022-12-20T20:13:53.046Z,11.45
2022-12-20T20:16:22.888Z,12.35
2022-12-20T20:18:50.955Z,13.55
2022-12-20T20:21:22.088Z,11.10
2022-12-20T20:23:53.907Z,11.25
2022-12-20T20:26:24.085Z,11.90
2022-12-20T20:28:51.650Z,12.25
2022-12-20T20:31:20.457Z,12.27
2022-12-20T20:33:48.178Z,13.40
2022-12-20T20:36:21.744Z,10.77
2022-12-20T20:38:49.876Z,11.00
2022-12-20T20:41:17.716Z,11.05
2022-12-20T20:43:45.080Z,11.75
2022-12-20T20:46:14.492Z,11.20
2022-12-20T20:48:43.245Z,11.88
2022-12-20T20:51:11.502Z,11.93
2022-12-20T20:53:39.579Z,11.27
2022-12-20T20:56:10.043Z,11.70
2022-12-20T20:58:38.483Z,12.32
2022-12-20T21:01:12.119Z,11.73
2022-12-20T21:03:40.555Z,13.77
2022-12-20T21:08:56.080Z,12.52
2022-12-20T21:11:23.841Z,11.80
2022-12-20T21:13:51.122Z,13.80
2022-12-20T21:16:22.451Z,12.70
2022-12-20T21:18:54.453Z,13.07
2022-12-20T21:21:23.134Z,13.57
2022-12-20T21:23:50.739Z,12.77
2022-12-20T21:26:19.979Z,12.70
2022-12-20T21:31:19.997Z,13.95
2022-12-20T21:33:47.464Z,12.65
2022-12-20T21:36:17.390Z,16.85
2022-12-20T21:38:50.447Z,18.20
2022-12-20T21:41:19.228Z,16.85
2022-12-20T21:43:46.833Z,17.35
2022-12-20T21:46:14.118Z,14.30
2022-12-20T21:48:43.321Z,17.70
2022-12-20T21:51:15.532Z,18.85
2022-12-20T21:53:50.411Z,26.80
2022-12-20T21:56:19.277Z,20.25
2022-12-20T21:58:47.271Z,22.00
2022-12-20T22:01:18.652Z,25.38
2022-12-20T22:03:55.552Z,20.58
2022-12-20T22:06:23.202Z,18.95
2022-12-20T22:08:50.615Z,18.10
2022-12-20T22:11:18.831Z,16.38
2022-12-20T22:13:47.435Z,16.33
2022-12-20T22:16:17.538Z,16.38
2022-12-20T22:18:48.537Z,20.95
2022-12-20T22:21:17.102Z,17.35
2022-12-20T22:23:44.380Z,18.48
2022-12-20T22:26:15.797Z,18.08
2022-12-20T22:28:51.487Z,19.95
2022-12-20T22:31:19.820Z,27.48
2022-12-20T22:33:47.884Z,21.58
2022-12-20T22:36:16.267Z,19.48
2022-12-20T22:38:44.025Z,20.10
2022-12-20T22:41:26.637Z,20.65
2022-12-20T22:43:54.527Z,23.38
2022-12-20T22:49:06.854Z,22.35
2022-12-20T22:51:36.877Z,21.77
2022-12-20T22:54:04.046Z,20.98
2022-12-20T22:56:31.139Z,21.25
2022-12-20T22:58:58.290Z,22.10
2022-12-20T23:01:25.395Z,23.00
2022-12-20T23:03:52.660Z,21.70
2022-12-20T23:06:21.205Z,20.40
2022-12-20T23:08:49.226Z,21.08
2022-12-20T23:11:41.553Z,25.17
2022-12-20T23:14:33.941Z,23.70
2022-12-20T23:17:01.692Z,21.42
2022-12-20T23:19:49.447Z,21.63
2022-12-20T23:22:35.173Z,20.40
2022-12-20T23:27:29.303Z,21.55
2022-12-20T23:29:56.426Z,22.27
2022-12-20T23:32:24.293Z,21.88
2022-12-20T23:34:51.652Z,20.35
2022-12-20T23:37:18.972Z,22.45
2022-12-20T23:39:46.117Z,26.63
2022-12-20T23:42:13.223Z,21.27
2022-12-20T23:44:40.322Z,21.65
2022-12-20T23:47:07.563Z,21.00
2022-12-20T23:49:34.810Z,19.05
2022-12-20T23:52:01.868Z,22.75
2022-12-20T23:54:28.999Z,20.85
2022-12-20T23:56:56.389Z,36.22
2022-12-20T23:59:24.856Z,22.13
